Time;durP1;ratioP1;P1;durP2;ratioP2;P2;SDS_P1;SDS_P2;PMS_P1;PMS_P2;Temp;Humidity;BMP_temperature;BMP_pressure;BME280_temperature;BME280_humidity;BME280_pressure;Samples;Min_cycle;Max_cycle;Signal;HPM_P1;HPM_P2
2023/08/23 00:01:59;;;;;;;8.80;5.60;;;29.40;49.20;;;;;;5050163;28;20115;-67
2023/08/23 00:04:26;;;;;;;9.77;6.13;;;29.30;49.30;;;;;;5050211;28;20124;-68
2023/08/23 00:06:52;;;;;;;10.55;5.75;;;29.40;49.30;;;;;;5048966;28;20425;-69
2023/08/23 00:09:18;;;;;;;5.05;4.35;;;29.30;49.30;;;;;;5050071;28;20044;-69
2023/08/23 00:11:44;;;;;;;6.38;4.80;;;29.40;49.30;;;;;;5050273;28;20123;-68
2023/08/23 00:14:10;;;;;;;5.22;4.35;;;29.30;49.40;;;;;;5050159;28;20048;-68
2023/08/23 00:16:36;;;;;;;5.20;4.43;;;29.30;49.40;;;;;;5050424;28;20041;-69
2023/08/23 00:19:02;;;;;;;5.85;4.18;;;29.30;49.40;;;;;;5068440;28;20078;-68
2023/08/23 00:21:29;;;;;;;4.97;4.10;;;29.40;49.40;;;;;;5057161;28;20041;-69
2023/08/23 00:23:55;;;;;;;4.72;4.22;;;29.50;49.40;;;;;;5053547;28;20029;-69
2023/08/23 00:26:21;;;;;;;4.80;3.97;;;29.50;49.50;;;;;;5034831;28;20386;-68
2023/08/23 00:28:48;;;;;;;4.93;4.28;;;29.40;49.50;;;;;;5052086;28;20396;-69
2023/08/23 00:31:15;;;;;;;5.25;4.47;;;29.20;49.50;;;;;;5053599;28;20052;-68
2023/08/23 00:33:41;;;;;;;4.43;3.95;;;29.50;49.50;;;;;;5052394;28;20036;-68
2023/08/23 00:36:07;;;;;;;11.77;5.50;;;29.30;49.50;;;;;;5053659;28;20041;-68
2023/08/23 00:38:33;;;;;;;6.15;4.95;;;29.30;49.50;;;;;;5052025;28;20047;-68
2023/08/23 00:40:59;;;;;;;4.82;4.13;;;29.40;49.50;;;;;;5053459;28;20025;-68
2023/08/23 00:43:25;;;;;;;4.97;4.47;;;29.40;49.50;;;;;;5053376;28;20397;-69
2023/08/23 00:45:52;;;;;;;9.10;5.55;;;29.20;49.40;;;;;;5052254;28;20092;-68
2023/08/23 00:48:18;;;;;;;7.85;6.15;;;29.20;49.40;;;;;;5053192;28;20037;-68
2023/08/23 00:50:45;;;;;;;9.73;6.22;;;29.20;49.40;;;;;;5053173;28;20118;-69
2023/08/23 00:53:13;;;;;;;6.13;5.45;;;29.30;49.50;;;;;;5051922;28;20491;-68
2023/08/23 00:55:40;;;;;;;7.03;4.80;;;29.10;49.60;;;;;;5051874;28;20401;-67
2023/08/23 00:58:07;;;;;;;6.43;4.28;;;29.30;49.70;;;;;;5051641;28;20036;-67
2023/08/23 01:00:34;;;;;;;6.60;4.65;;;29.20;49.70;;;;;;5053302;28;20040;-68
2023/08/23 01:03:00;;;;;;;4.95;4.22;;;29.30;49.70;;;;;;5053075;28;20040;-68
2023/08/23 01:05:41;;;;;;;4.40;3.90;;;29.20;49.80;;;;;;5051662;28;20065;-68
2023/08/23 01:08:18;;;;;;;4.28;3.85;;;29.20;49.80;;;;;;5035087;28;20044;-68
2023/08/23 01:10:54;;;;;;;5.70;4.20;;;29.20;49.80;;;;;;5051463;28;20048;-68
2023/08/23 01:13:27;;;;;;;6.35;4.97;;;29.30;49.90;;;;;;5051678;28;20041;-68
2023/08/23 01:15:56;;;;;;;4.90;4.40;;;29.20;49.90;;;;;;5051623;28;20040;-68
2023/08/23 01:18:24;;;;;;;5.25;4.13;;;29.20;49.90;;;;;;5052707;28;20679;-68
2023/08/23 01:20:53;;;;;;;4.82;4.30;;;29.30;50.00;;;;;;5052475;28;20036;-68
2023/08/23 01:23:19;;;;;;;4.10;3.70;;;29.40;50.00;;;;;;5051515;28;20574;-68
2023/08/23 01:25:52;;;;;;;4.85;3.95;;;29.40;50.10;;;;;;5051342;28;20037;-68
2023/08/23 01:28:20;;;;;;;4.22;3.50;;;29.20;50.10;;;;;;5052458;28;20123;-68
2023/08/23 01:30:48;;;;;;;4.63;3.78;;;29.40;50.20;;;;;;5052308;28;20435;-68
2023/08/23 01:33:18;;;;;;;5.53;3.88;;;29.40;50.20;;;;;;5052226;28;20037;-68
2023/08/23 01:36:05;;;;;;;6.10;4.03;;;29.30;50.20;;;;;;5052329;28;20036;-68
2023/08/23 01:38:33;;;;;;;4.10;3.50;;;29.40;50.20;;;;;;5050888;28;20029;-68
2023/08/23 01:41:00;;;;;;;4.00;3.55;;;29.20;50.20;;;;;;5052372;28;20037;-68
2023/08/23 01:43:26;;;;;;;5.10;4.13;;;29.30;50.30;;;;;;5052385;28;20038;-68
2023/08/23 01:45:52;;;;;;;4.50;3.97;;;29.30;50.20;;;;;;5052337;28;20437;-68
2023/08/23 01:48:18;;;;;;;4.13;3.72;;;29.30;50.30;;;;;;5052145;28;20064;-69
2023/08/23 01:50:45;;;;;;;5.10;3.55;;;29.30;50.30;;;;;;5052443;28;20025;-68
2023/08/23 01:53:11;;;;;;;4.57;3.50;;;29.30;50.30;;;;;;5052243;28;20028;-68
2023/08/23 01:55:37;;;;;;;4.45;3.72;;;29.30;50.30;;;;;;5049767;28;20083;-69
2023/08/23 01:58:06;;;;;;;5.43;3.92;;;29.10;50.40;;;;;;5050487;28;20036;-68
2023/08/23 02:00:32;;;;;;;4.38;3.95;;;29.10;50.50;;;;;;5050591;28;20032;-68
2023/08/23 02:02:58;;;;;;;5.57;4.03;;;29.30;50.40;;;;;;5051742;28;20055;-67
2023/08/23 02:05:24;;;;;;;4.95;4.40;;;29.20;50.50;;;;;;5050558;28;20068;-68
2023/08/23 02:07:51;;;;;;;4.97;3.92;;;29.20;50.50;;;;;;5050603;28;20037;-68
2023/08/23 02:10:20;;;;;;;5.50;3.90;;;29.10;50.50;;;;;;5049569;28;20544;-68
2023/08/23 02:12:47;;;;;;;5.47;4.32;;;29.20;50.50;;;;;;5049554;28;20129;-68
2023/08/23 02:15:13;;;;;;;4.75;3.63;;;29.30;50.60;;;;;;5051403;28;20033;-68
2023/08/23 02:17:39;;;;;;;5.57;4.00;;;29.30;50.60;;;;;;5051800;28;20732;-68
2023/08/23 02:20:06;;;;;;;4.63;4.13;;;29.20;50.60;;;;;;5051420;28;20033;-68
2023/08/23 02:22:32;;;;;;;6.10;4.40;;;29.30;50.60;;;;;;5051262;28;20064;-68
2023/08/23 02:24:58;;;;;;;4.93;3.70;;;29.40;50.70;;;;;;5069732;28;20090;-68
2023/08/23 02:27:24;;;;;;;4.10;3.60;;;29.20;50.70;;;;;;5070248;28;20043;-68
2023/08/23 02:29:51;;;;;;;4.18;3.58;;;29.30;50.70;;;;;;5071194;28;20037;-68
2023/08/23 02:32:17;;;;;;;4.75;3.90;;;29.30;50.70;;;;;;5071372;28;20040;-68
2023/08/23 02:34:43;;;;;;;3.88;3.58;;;29.30;50.70;;;;;;5071294;28;20040;-68
2023/08/23 02:37:09;;;;;;;5.47;3.67;;;29.30;50.80;;;;;;5071339;28;20109;-68
2023/08/23 02:39:35;;;;;;;4.75;4.07;;;29.30;50.80;;;;;;5071202;28;20476;-68
2023/08/23 02:42:01;;;;;;;4.32;3.78;;;29.40;50.80;;;;;;5069288;28;20047;-68
2023/08/23 02:44:27;;;;;;;4.88;3.40;;;29.30;50.80;;;;;;5071193;28;20483;-68
2023/08/23 02:46:53;;;;;;;5.78;3.75;;;29.40;50.80;;;;;;5069739;28;20086;-68
2023/08/23 02:49:19;;;;;;;4.15;3.75;;;29.20;50.80;;;;;;5071114;28;20421;-68
2023/08/23 02:51:45;;;;;;;4.63;4.22;;;29.30;50.80;;;;;;5069895;28;20090;-69
2023/08/23 02:54:11;;;;;;;6.03;3.70;;;29.20;50.80;;;;;;5071047;28;20037;-68
2023/08/23 02:56:37;;;;;;;4.80;3.75;;;29.30;50.80;;;;;;5071058;28;20044;-67
2023/08/23 02:59:04;;;;;;;3.50;3.20;;;29.30;50.80;;;;;;5069486;28;20166;-68
2023/08/23 03:01:30;;;;;;;4.90;3.92;;;29.20;50.80;;;;;;5069698;28;20044;-67
2023/08/23 03:03:57;;;;;;;5.10;3.88;;;29.20;50.80;;;;;;5070719;28;20468;-69
2023/08/23 03:06:23;;;;;;;3.35;3.05;;;29.30;50.80;;;;;;5068658;28;20554;-68
2023/08/23 03:08:49;;;;;;;3.95;3.53;;;29.40;50.80;;;;;;5069430;28;20028;-68
2023/08/23 03:11:15;;;;;;;5.07;4.03;;;29.20;50.90;;;;;;5069667;28;20036;-68
2023/08/23 03:13:41;;;;;;;10.13;5.55;;;29.20;50.90;;;;;;5070546;28;20119;-68
2023/08/23 03:16:07;;;;;;;8.23;5.10;;;29.20;50.90;;;;;;5071036;28;20123;-68
2023/08/23 03:18:33;;;;;;;11.85;6.20;;;29.20;50.90;;;;;;5069647;28;20039;-68
2023/08/23 03:20:59;;;;;;;7.57;5.53;;;29.20;50.90;;;;;;5069511;28;20036;-67
2023/08/23 03:23:26;;;;;;;3.90;3.55;;;29.20;50.90;;;;;;5069511;28;20036;-68
2023/08/23 03:25:52;;;;;;;6.90;4.80;;;29.20;50.90;;;;;;5070930;28;20024;-68
2023/08/23 03:28:20;;;;;;;16.75;8.02;;;29.10;51.00;;;;;;5069601;28;20032;-68
2023/08/23 03:30:47;;;;;;;8.20;5.97;;;29.20;51.00;;;;;;5070645;28;20041;-68
2023/08/23 03:33:13;;;;;;;6.70;5.20;;;29.20;51.00;;;;;;5070804;28;20043;-68
2023/08/23 03:35:40;;;;;;;6.18;4.43;;;29.30;51.00;;;;;;5069319;28;20076;-68
2023/08/23 03:38:06;;;;;;;10.98;5.78;;;29.20;51.00;;;;;;5069206;28;20052;-68
2023/08/23 03:40:39;;;;;;;8.32;6.15;;;29.40;51.10;;;;;;5068870;28;20029;-68
2023/08/23 03:43:05;;;;;;;6.72;4.32;;;29.10;51.00;;;;;;5069428;28;20561;-68
2023/08/23 03:45:31;;;;;;;5.05;4.25;;;29.30;51.10;;;;;;5070702;28;20380;-68
2023/08/23 03:47:57;;;;;;;4.68;3.95;;;29.40;51.10;;;;;;5069034;28;20049;-68
2023/08/23 03:50:23;;;;;;;3.92;3.35;;;29.40;51.10;;;;;;5070534;28;20166;-68
2023/08/23 03:52:49;;;;;;;4.78;3.45;;;29.20;51.10;;;;;;5071144;28;20032;-68
2023/08/23 03:55:16;;;;;;;4.55;3.95;;;29.40;51.20;;;;;;5074309;28;20136;-70
2023/08/23 03:57:41;;;;;;;4.85;3.90;;;29.30;51.10;;;;;;5056444;28;20024;-70
2023/08/23 04:00:08;;;;;;;10.93;4.32;;;29.30;51.10;;;;;;5072835;28;20043;-70
2023/08/23 04:02:43;;;;;;;7.97;5.63;;;29.40;50.80;;;;;;5072758;28;20094;-69
2023/08/23 04:05:11;;;;;;;7.82;5.85;;;29.30;50.40;;;;;;5072933;28;20469;-69
2023/08/23 04:07:39;;;;;;;7.80;6.30;;;29.30;50.10;;;;;;5052132;28;20037;-71
2023/08/23 04:10:06;;;;;;;8.52;6.38;;;29.20;49.70;;;;;;5054185;28;20052;-69
2023/08/23 04:12:32;;;;;;;7.25;6.32;;;29.30;49.50;;;;;;5054297;28;20086;-70
2023/08/23 04:14:58;;;;;;;7.70;6.32;;;29.30;49.10;;;;;;5053888;28;20067;-70
2023/08/23 04:17:24;;;;;;;11.85;7.68;;;29.20;48.70;;;;;;5052649;28;20094;-70
2023/08/23 04:19:50;;;;;;;13.82;8.40;;;29.10;48.40;;;;;;5030808;28;20052;-71
2023/08/23 04:22:16;;;;;;;10.52;7.00;;;29.60;51.90;;;;;;5031296;28;20046;-69
2023/08/23 04:24:43;;;;;;;12.32;6.38;;;30.00;55.50;;;;;;5014949;28;20512;-70
2023/08/23 04:27:09;;;;;;;11.95;6.82;;;30.40;53.40;;;;;;5014816;28;20037;-70
2023/08/23 04:29:35;;;;;;;11.18;7.28;;;30.10;50.70;;;;;;5014598;28;20048;-70
2023/08/23 04:32:02;;;;;;;10.50;7.32;;;30.00;49.50;;;;;;5027533;28;20543;-69
2023/08/23 04:34:31;;;;;;;15.20;7.00;;;29.80;48.80;;;;;;5034861;28;20076;-70
2023/08/23 04:36:57;;;;;;;10.80;7.38;;;29.70;48.90;;;;;;5051273;28;20420;-69
2023/08/23 04:39:23;;;;;;;12.00;7.72;;;29.80;49.90;;;;;;5034454;28;20061;-69
2023/08/23 04:41:49;;;;;;;11.32;7.47;;;29.60;50.60;;;;;;5034259;28;20037;-69
2023/08/23 04:44:15;;;;;;;10.35;6.32;;;29.50;51.10;;;;;;5034278;28;20055;-69
2023/08/23 04:46:41;;;;;;;11.32;7.35;;;29.50;51.40;;;;;;5034097;28;20223;-69
2023/08/23 04:49:07;;;;;;;8.45;6.90;;;29.50;51.50;;;;;;5034113;28;20037;-70
2023/08/23 04:51:33;;;;;;;11.07;7.72;;;29.40;51.50;;;;;;5034170;28;20056;-69
2023/08/23 04:53:59;;;;;;;12.30;7.10;;;29.30;51.60;;;;;;5034253;28;20045;-69
2023/08/23 04:56:25;;;;;;;14.35;7.50;;;29.30;51.90;;;;;;5037406;28;20075;-68
2023/08/23 04:58:53;;;;;;;10.40;7.53;;;29.20;51.90;;;;;;5070992;28;20174;-69
2023/08/23 05:01:19;;;;;;;10.55;7.38;;;29.40;52.00;;;;;;5071690;28;20036;-69
2023/08/23 05:03:45;;;;;;;13.73;7.22;;;29.40;51.90;;;;;;5071766;28;20484;-69
2023/08/23 05:06:11;;;;;;;12.93;8.18;;;29.30;51.40;;;;;;5089965;28;20051;-69
2023/08/23 05:08:37;;;;;;;19.00;8.90;;;29.40;50.60;;;;;;5090559;28;20123;-69
2023/08/23 05:11:08;;;;;;;16.90;8.98;;;29.40;49.70;;;;;;5073506;28;20645;-68
2023/08/23 05:13:34;;;;;;;17.10;9.88;;;29.40;49.50;;;;;;5090543;28;20050;-69
2023/08/23 05:16:01;;;;;;;17.35;10.13;;;29.50;50.90;;;;;;5073966;28;20036;-68
2023/08/23 05:18:27;;;;;;;21.95;10.70;;;29.50;49.80;;;;;;5073622;28;20036;-69
2023/08/23 05:20:55;;;;;;;23.70;10.82;;;29.50;49.70;;;;;;5090486;28;20044;-69
2023/08/23 05:23:24;;;;;;;20.80;11.75;;;29.50;49.60;;;;;;5090507;28;20101;-68
2023/08/23 05:25:53;;;;;;;21.60;11.95;;;29.40;49.90;;;;;;5090658;28;20036;-68
2023/08/23 05:28:20;;;;;;;27.48;12.48;;;29.50;49.80;;;;;;5090482;28;20115;-69
2023/08/23 05:30:47;;;;;;;24.58;10.57;;;29.50;50.30;;;;;;5073398;28;20086;-69
2023/08/23 05:33:17;;;;;;;18.63;10.93;;;29.50;50.10;;;;;;5073370;28;20105;-65
2023/08/23 05:35:44;;;;;;;19.55;10.45;;;29.50;49.80;;;;;;5073496;28;20044;-67
2023/08/23 05:38:11;;;;;;;14.43;9.77;;;29.40;49.80;;;;;;5073436;28;20075;-69
2023/08/23 05:40:38;;;;;;;22.42;10.68;;;29.40;50.30;;;;;;5072925;28;20040;-67
2023/08/23 05:43:05;;;;;;;22.88;9.88;;;29.60;50.00;;;;;;5085389;28;20412;-69
2023/08/23 05:45:31;;;;;;;18.55;9.60;;;29.60;50.80;;;;;;5069532;28;20056;-69
2023/08/23 05:48:01;;;;;;;13.88;9.45;;;29.70;50.50;;;;;;5069594;28;20514;-68
2023/08/23 05:50:28;;;;;;;15.77;11.30;;;29.70;51.00;;;;;;5069515;28;20045;-68
2023/08/23 05:52:54;;;;;;;15.35;9.57;;;29.70;50.30;;;;;;5053225;28;20085;-68
2023/08/23 05:55:20;;;;;;;15.52;8.85;;;29.80;50.60;;;;;;5069571;28;20093;-68
2023/08/23 05:57:46;;;;;;;12.43;8.70;;;29.80;50.20;;;;;;5069765;28;20571;-68
2023/08/23 06:00:14;;;;;;;10.73;7.40;;;29.70;50.80;;;;;;5052722;28;20151;-68
2023/08/23 06:02:42;;;;;;;9.90;6.80;;;29.70;50.70;;;;;;5036190;28;20078;-68
2023/08/23 06:05:10;;;;;;;13.35;8.25;;;29.60;50.90;;;;;;5055510;28;20110;-69
2023/08/23 06:07:38;;;;;;;13.05;8.25;;;29.80;50.90;;;;;;5049309;28;20060;-72
2023/08/23 06:10:04;;;;;;;13.73;8.05;;;29.70;51.10;;;;;;5048906;28;20041;-71
2023/08/23 06:12:30;;;;;;;11.85;7.38;;;29.80;53.00;;;;;;5049226;28;20409;-70
2023/08/23 06:14:56;;;;;;;12.80;7.88;;;29.70;51.20;;;;;;5049422;28;20110;-69
2023/08/23 06:17:25;;;;;;;9.32;7.60;;;29.80;50.90;;;;;;5031991;28;20107;-71
2023/08/23 06:19:51;;;;;;;14.00;8.05;;;29.70;50.80;;;;;;5049341;28;20033;-69
2023/08/23 06:22:18;;;;;;;12.13;7.32;;;29.70;49.80;;;;;;5049860;28;20049;-70
2023/08/23 06:24:44;;;;;;;14.20;8.52;;;29.80;49.90;;;;;;5051858;28;20452;-70
2023/08/23 06:27:10;;;;;;;10.15;8.23;;;29.90;48.90;;;;;;5051755;28;20033;-69
2023/08/23 06:29:39;;;;;;;9.48;7.45;;;29.70;50.00;;;;;;5053676;28;20498;-70
2023/08/23 06:32:09;;;;;;;11.82;7.25;;;29.70;49.50;;;;;;5070561;28;20040;-71
2023/08/23 06:34:35;;;;;;;14.07;8.13;;;29.60;49.20;;;;;;5065237;28;20039;-71
2023/08/23 06:37:01;;;;;;;12.40;7.50;;;29.70;49.10;;;;;;5051175;28;20033;-72
2023/08/23 06:39:28;;;;;;;9.98;7.40;;;29.70;48.90;;;;;;5059989;28;20055;-71
2023/08/23 06:41:54;;;;;;;12.23;6.80;;;29.70;48.90;;;;;;5071426;28;20036;-71
2023/08/23 06:44:20;;;;;;;8.93;6.70;;;29.70;48.80;;;;;;5057384;28;20405;-72
2023/08/23 06:46:46;;;;;;;12.07;8.38;;;29.70;48.50;;;;;;5051496;28;20057;-71
2023/08/23 06:49:12;;;;;;;15.05;8.25;;;29.70;48.60;;;;;;5051381;28;20115;-71
2023/08/23 06:51:38;;;;;;;9.35;7.85;;;29.70;48.70;;;;;;5054572;28;20432;-72
2023/08/23 06:54:04;;;;;;;8.82;6.57;;;29.70;48.60;;;;;;5071349;28;20055;-71
2023/08/23 06:56:30;;;;;;;10.38;6.85;;;29.70;49.10;;;;;;5071066;28;20036;-71
2023/08/23 06:58:57;;;;;;;13.20;7.50;;;29.70;48.80;;;;;;5071297;28;20095;-71
2023/08/23 07:01:23;;;;;;;8.93;6.20;;;29.80;48.70;;;;;;5071191;28;20028;-71
2023/08/23 07:03:49;;;;;;;9.70;5.97;;;29.80;48.30;;;;;;5071252;28;20054;-71
2023/08/23 07:06:15;;;;;;;9.77;7.43;;;29.70;48.30;;;;;;5055687;28;20064;-73
2023/08/23 07:08:42;;;;;;;14.88;7.40;;;29.80;48.00;;;;;;5036915;28;20480;-70
2023/08/23 07:11:09;;;;;;;12.63;7.70;;;29.70;47.50;;;;;;5071020;28;20043;-72
2023/08/23 07:13:36;;;;;;;10.35;7.45;;;29.70;47.50;;;;;;5069962;28;20048;-72
2023/08/23 07:16:03;;;;;;;10.15;7.45;;;29.80;47.70;;;;;;5071076;28;20031;-73
2023/08/23 07:18:32;;;;;;;16.52;7.53;;;29.70;48.00;;;;;;5070904;28;20647;-72
2023/08/23 07:20:58;;;;;;;12.80;7.30;;;29.60;48.00;;;;;;5071097;28;20085;-73
2023/08/23 07:23:24;;;;;;;11.88;8.13;;;29.60;48.00;;;;;;5070746;28;20452;-71
2023/08/23 07:25:51;;;;;;;10.27;7.80;;;29.70;48.10;;;;;;5060141;28;20037;-71
2023/08/23 07:28:17;;;;;;;12.00;7.88;;;29.60;48.20;;;;;;5052140;28;20040;-73
2023/08/23 07:30:57;;;;;;;11.10;7.68;;;29.80;48.20;;;;;;5054613;28;20105;-74
2023/08/23 07:33:26;;;;;;;19.10;8.95;;;29.70;48.20;;;;;;5052859;28;20025;-71
2023/08/23 07:36:00;;;;;;;12.52;7.85;;;29.70;48.70;;;;;;5035457;28;20473;-69
2023/08/23 07:38:28;;;;;;;15.90;8.52;;;29.70;48.90;;;;;;5052741;28;20120;-69
2023/08/23 07:40:59;;;;;;;13.02;7.38;;;29.70;49.10;;;;;;5053301;28;20033;-70
2023/08/23 07:43:26;;;;;;;8.15;5.90;;;29.80;49.20;;;;;;5043775;28;20048;-69
2023/08/23 07:45:56;;;;;;;13.52;8.20;;;29.70;49.10;;;;;;5074270;28;20507;-69
2023/08/23 07:48:23;;;;;;;15.25;8.95;;;29.70;49.00;;;;;;5074201;28;20101;-70
2023/08/23 07:50:53;;;;;;;16.75;8.85;;;29.70;48.90;;;;;;5074623;28;20082;-70
2023/08/23 07:53:19;;;;;;;11.30;7.78;;;29.70;48.80;;;;;;5074387;28;20695;-70
2023/08/23 07:55:45;;;;;;;15.48;8.57;;;29.70;48.80;;;;;;5074526;28;20031;-70
2023/08/23 07:58:11;;;;;;;16.15;8.65;;;29.70;48.80;;;;;;5074365;28;20032;-70
2023/08/23 08:00:37;;;;;;;17.55;9.48;;;29.70;48.80;;;;;;5072962;28;20111;-70
2023/08/23 08:03:04;;;;;;;15.23;8.20;;;29.70;48.80;;;;;;5074229;28;20193;-70
2023/08/23 08:05:30;;;;;;;12.95;8.85;;;29.70;48.90;;;;;;5074197;28;20025;-70
2023/08/23 08:07:57;;;;;;;17.73;9.48;;;29.70;49.00;;;;;;5074184;28;20464;-68
2023/08/23 08:10:23;;;;;;;16.38;9.63;;;29.80;49.10;;;;;;5073592;28;20071;-70
2023/08/23 08:12:49;;;;;;;20.30;9.32;;;29.70;49.20;;;;;;5073872;28;20086;-70
2023/08/23 08:15:15;;;;;;;11.90;9.02;;;29.80;49.30;;;;;;5073951;28;20039;-70
2023/08/23 08:17:43;;;;;;;13.43;7.88;;;29.80;51.70;;;;;;5070633;28;20484;-71
2023/08/23 08:20:10;;;;;;;10.15;7.63;;;29.90;53.00;;;;;;5054007;28;20125;-70
2023/08/23 08:23:06;;;;;;;;;;;;;;;;;;;;;
2023/08/23 08:26:03;;;;;;;14.98;9.30;;;30.20;55.20;;;;;;5037959;28;20090;-71
2023/08/23 08:28:57;;;;;;;10.20;6.85;;;30.80;59.70;;;;;;5038156;28;20037;-71
2023/08/23 08:31:23;;;;;;;11.98;7.32;;;31.10;55.10;;;;;;5056334;28;20032;-72
2023/08/23 08:33:59;;;;;;;10.02;7.65;;;30.90;51.50;;;;;;5066837;28;20127;-70
2023/08/23 08:36:26;;;;;;;11.00;7.10;;;30.60;50.60;;;;;;5051211;28;20043;-69
2023/08/23 08:39:28;;;;;;;11.50;7.00;;;30.60;50.20;;;;;;5034309;28;20098;-71
2023/08/23 08:41:55;;;;;;;9.90;7.13;;;30.50;50.00;;;;;;5018842;28;20056;-71
2023/08/23 08:44:34;;;;;;;10.90;7.28;;;30.30;49.40;;;;;;5055275;28;20040;-70
2023/08/23 08:47:12;;;;;;;7.45;5.30;;;30.20;49.30;;;;;;5034299;28;20504;-71
2023/08/23 08:49:38;;;;;;;10.48;6.38;;;30.20;51.10;;;;;;5053205;28;20543;-70
2023/08/23 08:56:30;;;;;;;38.67;30.58;;;30.10;52.20;;;;;;4917588;29;20048;-72
2023/08/23 08:59:07;;;;;;;8.95;6.78;;;30.40;50.00;;;;;;4880093;29;20052;-74
2023/08/23 09:01:58;;;;;;;13.10;7.95;;;30.20;49.40;;;;;;4862468;29;20036;-72
2023/08/23 09:04:24;;;;;;;7.47;5.78;;;30.20;49.40;;;;;;4895418;29;20041;-71
2023/08/23 09:06:56;;;;;;;8.50;6.75;;;30.20;49.70;;;;;;4898588;29;20048;-71
2023/08/23 09:09:56;;;;;;;7.13;5.63;;;30.20;49.70;;;;;;4914263;29;20059;-71
2023/08/23 09:12:36;;;;;;;9.35;6.43;;;30.20;49.80;;;;;;4898796;29;20167;-76
2023/08/23 09:15:19;;;;;;;8.13;6.00;;;30.20;50.40;;;;;;4856753;29;20040;-73
2023/08/23 09:18:02;;;;;;;6.25;5.47;;;30.10;50.20;;;;;;4899284;29;20048;-72
2023/08/23 09:21:03;;;;;;;6.53;5.03;;;30.10;50.40;;;;;;4882654;29;20051;-73
2023/08/23 09:23:57;;;;;;;4.50;4.07;;;30.10;50.50;;;;;;4914003;29;20111;-72
2023/08/23 09:26:37;;;;;;;10.50;4.95;;;30.10;50.60;;;;;;4898679;29;20071;-72
2023/08/23 09:29:18;;;;;;;11.20;5.93;;;30.20;50.60;;;;;;4914140;29;20147;-72
2023/08/23 09:31:43;;;;;;;;;;;30.20;50.60;;;;;;4917971;29;20059;-71
2023/08/23 09:34:15;;;;;;;5.68;4.18;;;30.20;50.60;;;;;;4981662;28;19920;-70
2023/08/23 09:36:41;;;;;;;5.18;4.63;;;30.30;50.60;;;;;;5029901;28;20125;-71
2023/08/23 09:39:12;;;;;;;7.97;5.90;;;30.10;50.60;;;;;;5030174;28;20029;-72
2023/08/23 09:41:42;;;;;;;6.60;5.13;;;30.10;50.80;;;;;;5030184;28;20053;-72
2023/08/23 09:44:09;;;;;;;8.48;4.47;;;30.20;50.90;;;;;;5064171;28;20040;-72
2023/08/23 09:46:36;;;;;;;7.22;5.85;;;30.00;50.90;;;;;;5069619;28;20052;-72
2023/08/23 09:49:06;;;;;;;6.30;5.30;;;30.10;50.90;;;;;;5069715;28;20033;-72
2023/08/23 09:51:37;;;;;;;11.43;5.60;;;30.20;50.80;;;;;;5069031;28;20045;-71
2023/08/23 09:54:17;;;;;;;7.00;5.68;;;30.00;50.60;;;;;;5069794;28;20091;-70
2023/08/23 09:56:44;;;;;;;5.90;4.90;;;30.00;50.70;;;;;;5069511;28;20140;-70
2023/08/23 09:59:11;;;;;;;6.35;4.72;;;30.00;50.90;;;;;;5069560;28;20048;-71
2023/08/23 10:01:38;;;;;;;6.28;5.35;;;30.00;50.80;;;;;;5069196;28;20075;-70
2023/08/23 10:04:06;;;;;;;6.85;5.22;;;30.10;51.60;;;;;;5061820;28;20052;-71
2023/08/23 10:06:33;;;;;;;10.48;5.45;;;30.00;51.30;;;;;;5058508;28;20036;-70
2023/08/23 10:09:00;;;;;;;8.52;5.43;;;30.00;51.60;;;;;;5049671;28;20694;-71
2023/08/23 10:11:28;;;;;;;7.10;5.00;;;30.00;51.30;;;;;;5049352;28;20051;-71
2023/08/23 10:13:57;;;;;;;5.97;5.30;;;30.00;51.60;;;;;;5066594;28;20056;-71
2023/08/23 10:16:24;;;;;;;6.70;5.45;;;30.00;51.60;;;;;;5069144;28;20037;-71
2023/08/23 10:18:52;;;;;;;8.20;6.45;;;30.00;51.60;;;;;;5069264;28;20500;-72
2023/08/23 10:21:18;;;;;;;7.25;5.90;;;30.00;52.40;;;;;;5069096;28;20146;-73
2023/08/23 10:23:44;;;;;;;7.85;6.22;;;29.90;51.80;;;;;;5069091;28;20054;-71
2023/08/23 10:26:21;;;;;;;12.07;6.22;;;30.20;52.90;;;;;;5062078;28;20045;-72
2023/08/23 10:28:52;;;;;;;9.18;6.35;;;30.10;52.80;;;;;;5051156;28;20068;-70
2023/08/23 10:31:28;;;;;;;9.40;7.03;;;30.20;51.90;;;;;;5065972;28;20082;-70
2023/08/23 10:33:55;;;;;;;7.55;5.55;;;30.10;52.30;;;;;;5071266;28;20072;-69
2023/08/23 10:36:27;;;;;;;10.55;6.07;;;30.80;54.60;;;;;;5071247;28;20040;-71
2023/08/23 10:38:57;;;;;;;10.52;6.07;;;30.80;56.30;;;;;;5071274;28;20028;-70
2023/08/23 10:41:24;;;;;;;8.93;5.60;;;31.00;55.00;;;;;;5069996;28;20071;-71
2023/08/23 10:43:52;;;;;;;9.82;5.75;;;30.80;52.90;;;;;;5069729;28;20040;-71
2023/08/23 10:46:21;;;;;;;5.10;4.60;;;30.80;53.00;;;;;;5070971;28;20061;-70
2023/08/23 10:48:48;;;;;;;6.20;4.97;;;30.90;52.20;;;;;;5068880;28;20048;-70
2023/08/23 10:51:15;;;;;;;7.35;4.90;;;30.80;52.10;;;;;;5062402;28;20104;-72
2023/08/23 10:53:42;;;;;;;8.35;5.80;;;30.70;52.30;;;;;;5041981;28;20488;-73
2023/08/23 10:56:10;;;;;;;9.88;5.40;;;30.70;55.20;;;;;;5051011;28;20037;-71
2023/08/23 10:58:36;;;;;;;8.60;5.57;;;30.90;57.00;;;;;;5051053;28;20075;-71
2023/08/23 11:01:03;;;;;;;6.22;5.30;;;31.20;58.70;;;;;;5050717;28;20096;-73
2023/08/23 11:03:34;;;;;;;8.25;6.13;;;31.20;54.20;;;;;;5048996;28;20033;-71
2023/08/23 11:06:00;;;;;;;10.27;6.55;;;31.00;53.20;;;;;;5049478;28;20039;-70
2023/08/23 11:08:26;;;;;;;7.00;5.75;;;30.90;52.10;;;;;;5050663;28;20033;-71
2023/08/23 11:10:52;;;;;;;12.07;6.50;;;31.00;51.90;;;;;;5049410;28;20384;-71
2023/08/23 11:13:19;;;;;;;7.95;5.35;;;31.00;52.70;;;;;;5050635;28;20076;-72
2023/08/23 11:15:45;;;;;;;5.88;5.07;;;30.90;52.00;;;;;;5050987;28;20052;-72
2023/08/23 11:18:12;;;;;;;7.57;5.03;;;31.00;51.60;;;;;;5049461;28;20481;-71
2023/08/23 11:20:38;;;;;;;6.00;4.88;;;31.00;51.00;;;;;;5049463;28;20029;-71
2023/08/23 11:23:04;;;;;;;8.45;4.97;;;30.90;49.70;;;;;;5050654;28;20037;-71
2023/08/23 11:25:31;;;;;;;6.15;4.60;;;31.00;49.60;;;;;;5050796;28;20040;-72
2023/08/23 11:27:57;;;;;;;6.65;4.70;;;30.90;48.70;;;;;;5050724;28;20041;-74
2023/08/23 11:30:24;;;;;;;7.35;4.95;;;30.90;48.30;;;;;;5050561;28;20393;-72
2023/08/23 11:32:50;;;;;;;6.28;4.50;;;31.00;48.20;;;;;;5050135;28;20029;-72
2023/08/23 11:35:17;;;;;;;7.57;4.75;;;30.90;47.40;;;;;;5050268;28;20041;-73
2023/08/23 11:37:43;;;;;;;6.13;4.68;;;30.80;47.00;;;;;;5050314;28;20073;-73
2023/08/23 11:40:12;;;;;;;6.63;4.82;;;30.90;46.80;;;;;;5050558;28;20032;-74
2023/08/23 11:42:38;;;;;;;6.13;4.22;;;30.80;46.40;;;;;;5052123;28;20033;-74
2023/08/23 11:45:05;;;;;;;6.00;4.57;;;30.80;46.20;;;;;;5070582;28;20033;-74
2023/08/23 11:47:33;;;;;;;5.25;4.70;;;30.80;45.90;;;;;;5070422;28;20052;-74
2023/08/23 11:49:59;;;;;;;5.65;4.53;;;30.80;45.60;;;;;;5069186;28;20028;-73
2023/08/23 11:52:29;;;;;;;8.98;5.13;;;30.70;45.50;;;;;;5070315;28;20067;-73
2023/08/23 11:54:55;;;;;;;5.70;4.45;;;30.80;45.20;;;;;;5069052;28;20101;-73
2023/08/23 11:57:21;;;;;;;4.10;3.70;;;30.70;45.00;;;;;;5070457;28;20041;-74
2023/08/23 11:59:48;;;;;;;6.03;4.53;;;30.70;44.80;;;;;;5059296;28;20040;-74
2023/08/23 12:02:14;;;;;;;5.68;4.53;;;30.60;44.70;;;;;;5050136;28;20126;-73
2023/08/23 12:04:44;;;;;;;4.88;4.00;;;30.70;44.70;;;;;;5050425;28;20040;-73
2023/08/23 12:07:12;;;;;;;5.07;4.57;;;30.60;44.70;;;;;;5050549;28;20037;-73
2023/08/23 12:09:41;;;;;;;5.90;4.05;;;30.60;44.30;;;;;;5049003;28;20037;-73
2023/08/23 12:12:08;;;;;;;4.38;3.75;;;30.60;43.70;;;;;;5032708;28;20127;-75
2023/08/23 12:14:34;;;;;;;6.80;4.43;;;30.50;43.60;;;;;;5051973;28;20035;-73
2023/08/23 12:17:00;;;;;;;8.55;4.55;;;30.40;43.30;;;;;;5053696;28;20094;-72
2023/08/23 12:19:27;;;;;;;4.13;3.70;;;30.50;43.00;;;;;;5053496;28;20061;-72
2023/08/23 12:21:53;;;;;;;4.88;4.15;;;30.30;42.90;;;;;;5053956;28;20115;-70
2023/08/23 12:24:20;;;;;;;4.82;4.22;;;30.30;42.70;;;;;;5053931;28;20045;-72
2023/08/23 12:26:46;;;;;;;4.50;3.85;;;30.20;42.60;;;;;;5053660;28;20040;-72
2023/08/23 12:29:12;;;;;;;5.20;3.70;;;30.30;42.70;;;;;;5053674;28;20028;-69
2023/08/23 12:31:39;;;;;;;4.65;3.97;;;30.30;43.00;;;;;;5070965;28;20040;-69
2023/08/23 12:34:05;;;;;;;7.47;4.20;;;30.30;43.60;;;;;;5054183;28;20123;-70
2023/08/23 12:36:31;;;;;;;13.70;4.75;;;30.30;44.90;;;;;;5071171;28;20504;-70
2023/08/23 12:38:58;;;;;;;5.75;3.90;;;30.20;48.00;;;;;;5071123;28;20075;-71
2023/08/23 12:41:25;;;;;;;6.35;3.65;;;30.20;48.10;;;;;;5084268;28;20043;-71
2023/08/23 12:43:51;;;;;;;4.82;4.32;;;30.30;47.90;;;;;;5091072;28;20047;-71
2023/08/23 12:46:17;;;;;;;7.35;5.22;;;30.20;47.40;;;;;;5091072;28;20645;-71
2023/08/23 12:48:43;;;;;;;4.18;3.55;;;30.20;47.00;;;;;;5091102;28;20032;-70
2023/08/23 12:51:09;;;;;;;4.60;3.03;;;30.10;46.70;;;;;;5091052;28;20673;-71
2023/08/23 12:53:34;;;;;;;3.83;3.45;;;30.10;46.60;;;;;;5090675;28;20153;-71